sensor_id;sensor_type;location;lat;lon;timestamp;temperature;humidity
18392;DHT22;9322;50.932;5.318;2024-02-26T00:02:20;6.90;1.40
18392;DHT22;9322;50.932;5.318;2024-02-26T00:04:46;6.90;1.40
18392;DHT22;9322;50.932;5.318;2024-02-26T00:07:12;6.80;1.40
18392;DHT22;9322;50.932;5.318;2024-02-26T00:09:37;7.20;1.40
18392;DHT22;9322;50.932;5.318;2024-02-26T00:12:03;6.90;1.40
18392;DHT22;9322;50.932;5.318;2024-02-26T00:14:30;6.90;1.40
18392;DHT22;9322;50.932;5.318;2024-02-26T00:16:56;6.90;1.40
18392;DHT22;9322;50.932;5.318;2024-02-26T00:19:22;6.80;1.40
18392;DHT22;9322;50.932;5.318;2024-02-26T00:21:48;6.80;1.40
18392;DHT22;9322;50.932;5.318;2024-02-26T00:24:13;6.80;1.40
18392;DHT22;9322;50.932;5.318;2024-02-26T00:26:39;6.70;1.40
18392;DHT22;9322;50.932;5.318;2024-02-26T00:29:05;6.70;1.40
18392;DHT22;9322;50.932;5.318;2024-02-26T00:31:31;6.70;1.40
18392;DHT22;9322;50.932;5.318;2024-02-26T00:33:57;6.70;1.40
18392;DHT22;9322;50.932;5.318;2024-02-26T00:36:22;6.70;1.40
18392;DHT22;9322;50.932;5.318;2024-02-26T00:38:48;6.70;1.40
18392;DHT22;9322;50.932;5.318;2024-02-26T00:41:20;6.60;1.40
18392;DHT22;9322;50.932;5.318;2024-02-26T00:43:46;6.60;1.40
18392;DHT22;9322;50.932;5.318;2024-02-26T00:46:12;6.50;1.40
18392;DHT22;9322;50.932;5.318;2024-02-26T00:48:38;6.60;1.40
18392;DHT22;9322;50.932;5.318;2024-02-26T00:51:04;6.60;1.40
18392;DHT22;9322;50.932;5.318;2024-02-26T00:53:33;6.60;1.40
18392;DHT22;9322;50.932;5.318;2024-02-26T00:55:59;6.50;1.40
18392;DHT22;9322;50.932;5.318;2024-02-26T00:58:26;6.50;1.40
18392;DHT22;9322;50.932;5.318;2024-02-26T01:00:52;6.40;1.40
18392;DHT22;9322;50.932;5.318;2024-02-26T01:03:18;6.40;1.40
18392;DHT22;9322;50.932;5.318;2024-02-26T01:05:44;6.50;1.40
18392;DHT22;9322;50.932;5.318;2024-02-26T01:08:09;6.40;1.40
18392;DHT22;9322;50.932;5.318;2024-02-26T01:10:35;6.40;1.40
18392;DHT22;9322;50.932;5.318;2024-02-26T01:13:01;6.50;1.40
18392;DHT22;9322;50.932;5.318;2024-02-26T01:15:27;6.40;1.40
18392;DHT22;9322;50.932;5.318;2024-02-26T01:17:53;6.40;1.40
18392;DHT22;9322;50.932;5.318;2024-02-26T01:20:19;6.40;1.40
18392;DHT22;9322;50.932;5.318;2024-02-26T01:22:45;6.40;1.40
18392;DHT22;9322;50.932;5.318;2024-02-26T01:25:10;6.40;1.40
18392;DHT22;9322;50.932;5.318;2024-02-26T01:27:37;6.40;1.40
18392;DHT22;9322;50.932;5.318;2024-02-26T01:30:06;6.50;1.40
18392;DHT22;9322;50.932;5.318;2024-02-26T01:32:32;6.40;1.40
18392;DHT22;9322;50.932;5.318;2024-02-26T01:34:58;6.40;1.40
18392;DHT22;9322;50.932;5.318;2024-02-26T01:37:23;6.40;1.40
18392;DHT22;9322;50.932;5.318;2024-02-26T01:39:49;6.40;1.40
18392;DHT22;9322;50.932;5.318;2024-02-26T01:42:15;6.60;1.40
18392;DHT22;9322;50.932;5.318;2024-02-26T01:44:40;6.40;1.40
18392;DHT22;9322;50.932;5.318;2024-02-26T01:47:08;6.30;1.40
18392;DHT22;9322;50.932;5.318;2024-02-26T01:49:36;6.60;1.40
18392;DHT22;9322;50.932;5.318;2024-02-26T01:52:03;6.40;1.40
18392;DHT22;9322;50.932;5.318;2024-02-26T01:54:30;6.30;1.40
18392;DHT22;9322;50.932;5.318;2024-02-26T01:56:56;6.30;1.40
18392;DHT22;9322;50.932;5.318;2024-02-26T01:59:23;6.30;1.40
18392;DHT22;9322;50.932;5.318;2024-02-26T02:01:55;6.50;1.40
18392;DHT22;9322;50.932;5.318;2024-02-26T02:04:23;6.30;1.40
18392;DHT22;9322;50.932;5.318;2024-02-26T02:06:50;6.20;1.40
18392;DHT22;9322;50.932;5.318;2024-02-26T02:09:18;6.20;1.40
18392;DHT22;9322;50.932;5.318;2024-02-26T02:11:43;6.20;1.40
18392;DHT22;9322;50.932;5.318;2024-02-26T02:14:10;6.20;1.40
18392;DHT22;9322;50.932;5.318;2024-02-26T02:16:35;6.30;1.40
18392;DHT22;9322;50.932;5.318;2024-02-26T02:19:01;6.30;1.40
18392;DHT22;9322;50.932;5.318;2024-02-26T02:21:26;6.40;1.40
18392;DHT22;9322;50.932;5.318;2024-02-26T02:23:52;6.40;1.40
18392;DHT22;9322;50.932;5.318;2024-02-26T02:26:18;6.30;1.40
18392;DHT22;9322;50.932;5.318;2024-02-26T02:28:45;6.30;1.40
18392;DHT22;9322;50.932;5.318;2024-02-26T02:31:11;6.30;1.40
18392;DHT22;9322;50.932;5.318;2024-02-26T02:33:37;6.30;1.40
18392;DHT22;9322;50.932;5.318;2024-02-26T02:36:03;6.20;1.40
18392;DHT22;9322;50.932;5.318;2024-02-26T02:38:29;6.20;1.40
18392;DHT22;9322;50.932;5.318;2024-02-26T02:40:57;6.10;1.40
18392;DHT22;9322;50.932;5.318;2024-02-26T02:43:22;6.10;1.40
18392;DHT22;9322;50.932;5.318;2024-02-26T02:45:48;6.10;1.40
18392;DHT22;9322;50.932;5.318;2024-02-26T02:48:14;6.00;1.40
18392;DHT22;9322;50.932;5.318;2024-02-26T02:50:39;6.10;1.40
18392;DHT22;9322;50.932;5.318;2024-02-26T02:53:05;6.10;1.40
18392;DHT22;9322;50.932;5.318;2024-02-26T02:55:31;6.10;1.40
18392;DHT22;9322;50.932;5.318;2024-02-26T02:57:56;6.20;1.40
18392;DHT22;9322;50.932;5.318;2024-02-26T03:00:22;6.20;1.40
18392;DHT22;9322;50.932;5.318;2024-02-26T03:02:49;6.20;1.40
18392;DHT22;9322;50.932;5.318;2024-02-26T03:05:15;6.10;1.40
18392;DHT22;9322;50.932;5.318;2024-02-26T03:07:41;6.10;1.40
18392;DHT22;9322;50.932;5.318;2024-02-26T03:10:07;6.20;1.40
18392;DHT22;9322;50.932;5.318;2024-02-26T03:12:34;6.10;1.40
18392;DHT22;9322;50.932;5.318;2024-02-26T03:15:00;6.20;1.40
18392;DHT22;9322;50.932;5.318;2024-02-26T03:17:29;6.10;1.40
18392;DHT22;9322;50.932;5.318;2024-02-26T03:19:54;6.10;1.40
18392;DHT22;9322;50.932;5.318;2024-02-26T03:22:20;6.00;1.40
18392;DHT22;9322;50.932;5.318;2024-02-26T03:24:47;6.10;1.40
18392;DHT22;9322;50.932;5.318;2024-02-26T03:27:13;6.10;1.40
18392;DHT22;9322;50.932;5.318;2024-02-26T03:29:39;6.00;1.40
18392;DHT22;9322;50.932;5.318;2024-02-26T03:32:05;6.10;1.40
18392;DHT22;9322;50.932;5.318;2024-02-26T03:34:32;6.00;1.40
18392;DHT22;9322;50.932;5.318;2024-02-26T03:37:00;6.10;1.40
18392;DHT22;9322;50.932;5.318;2024-02-26T03:39:26;6.00;1.40
18392;DHT22;9322;50.932;5.318;2024-02-26T03:41:52;6.00;1.40
18392;DHT22;9322;50.932;5.318;2024-02-26T03:44:17;6.10;1.40
18392;DHT22;9322;50.932;5.318;2024-02-26T03:46:43;6.00;1.40
18392;DHT22;9322;50.932;5.318;2024-02-26T03:49:09;6.00;1.40
18392;DHT22;9322;50.932;5.318;2024-02-26T03:51:35;6.00;1.40
18392;DHT22;9322;50.932;5.318;2024-02-26T03:54:01;6.10;1.40
18392;DHT22;9322;50.932;5.318;2024-02-26T03:56:27;6.10;1.40
18392;DHT22;9322;50.932;5.318;2024-02-26T03:58:53;6.10;1.40
18392;DHT22;9322;50.932;5.318;2024-02-26T04:01:19;6.10;1.40
18392;DHT22;9322;50.932;5.318;2024-02-26T04:03:45;6.10;1.40
18392;DHT22;9322;50.932;5.318;2024-02-26T04:06:11;6.10;1.40
18392;DHT22;9322;50.932;5.318;2024-02-26T04:08:40;6.20;1.40
18392;DHT22;9322;50.932;5.318;2024-02-26T04:11:05;6.40;1.40
18392;DHT22;9322;50.932;5.318;2024-02-26T04:13:36;6.20;1.40
18392;DHT22;9322;50.932;5.318;2024-02-26T04:16:06;6.20;1.40
18392;DHT22;9322;50.932;5.318;2024-02-26T04:18:33;6.10;1.40
18392;DHT22;9322;50.932;5.318;2024-02-26T04:20:58;6.00;1.40
18392;DHT22;9322;50.932;5.318;2024-02-26T04:23:24;6.10;1.40
18392;DHT22;9322;50.932;5.318;2024-02-26T04:25:50;6.10;1.40
18392;DHT22;9322;50.932;5.318;2024-02-26T04:28:18;6.10;1.40
18392;DHT22;9322;50.932;5.318;2024-02-26T04:30:47;6.10;1.40
18392;DHT22;9322;50.932;5.318;2024-02-26T04:33:13;6.10;1.40
18392;DHT22;9322;50.932;5.318;2024-02-26T04:35:39;6.10;1.40
18392;DHT22;9322;50.932;5.318;2024-02-26T04:38:05;6.00;1.40
18392;DHT22;9322;50.932;5.318;2024-02-26T04:40:31;6.10;1.40
18392;DHT22;9322;50.932;5.318;2024-02-26T04:42:56;6.10;1.40
18392;DHT22;9322;50.932;5.318;2024-02-26T04:45:23;6.10;1.40
18392;DHT22;9322;50.932;5.318;2024-02-26T04:47:48;6.30;1.40
18392;DHT22;9322;50.932;5.318;2024-02-26T04:50:14;6.10;1.40
18392;DHT22;9322;50.932;5.318;2024-02-26T04:52:41;6.20;1.40
18392;DHT22;9322;50.932;5.318;2024-02-26T04:55:07;6.20;1.40
18392;DHT22;9322;50.932;5.318;2024-02-26T04:57:33;6.20;1.40
18392;DHT22;9322;50.932;5.318;2024-02-26T04:59:58;6.20;1.40
18392;DHT22;9322;50.932;5.318;2024-02-26T05:02:24;6.20;1.40
18392;DHT22;9322;50.932;5.318;2024-02-26T05:04:50;6.20;1.40
18392;DHT22;9322;50.932;5.318;2024-02-26T05:07:16;6.20;1.40
18392;DHT22;9322;50.932;5.318;2024-02-26T05:09:44;6.20;1.40
18392;DHT22;9322;50.932;5.318;2024-02-26T05:12:10;6.10;1.40
18392;DHT22;9322;50.932;5.318;2024-02-26T05:14:36;6.10;1.40
18392;DHT22;9322;50.932;5.318;2024-02-26T05:17:02;6.10;1.40
18392;DHT22;9322;50.932;5.318;2024-02-26T05:19:27;6.20;1.40
18392;DHT22;9322;50.932;5.318;2024-02-26T05:21:53;6.20;1.40
18392;DHT22;9322;50.932;5.318;2024-02-26T05:24:19;6.20;1.40
18392;DHT22;9322;50.932;5.318;2024-02-26T05:26:48;6.10;1.40
18392;DHT22;9322;50.932;5.318;2024-02-26T05:29:13;6.10;1.40
18392;DHT22;9322;50.932;5.318;2024-02-26T05:31:41;6.10;1.40
18392;DHT22;9322;50.932;5.318;2024-02-26T05:34:07;6.10;1.40
18392;DHT22;9322;50.932;5.318;2024-02-26T05:36:33;6.10;1.40
18392;DHT22;9322;50.932;5.318;2024-02-26T05:39:00;6.10;1.40
18392;DHT22;9322;50.932;5.318;2024-02-26T05:41:26;6.10;1.40
18392;DHT22;9322;50.932;5.318;2024-02-26T05:43:55;6.10;1.40
18392;DHT22;9322;50.932;5.318;2024-02-26T05:46:21;6.00;1.40
18392;DHT22;9322;50.932;5.318;2024-02-26T05:48:51;6.10;1.40
18392;DHT22;9322;50.932;5.318;2024-02-26T05:51:17;6.10;1.40
18392;DHT22;9322;50.932;5.318;2024-02-26T05:53:43;6.10;1.40
18392;DHT22;9322;50.932;5.318;2024-02-26T05:56:09;6.00;1.40
18392;DHT22;9322;50.932;5.318;2024-02-26T05:58:35;6.00;1.40
18392;DHT22;9322;50.932;5.318;2024-02-26T06:01:00;6.00;1.40
18392;DHT22;9322;50.932;5.318;2024-02-26T06:03:26;5.90;1.40
18392;DHT22;9322;50.932;5.318;2024-02-26T06:05:52;5.90;1.40
18392;DHT22;9322;50.932;5.318;2024-02-26T06:08:18;5.90;1.40
18392;DHT22;9322;50.932;5.318;2024-02-26T06:10:44;5.90;1.40
18392;DHT22;9322;50.932;5.318;2024-02-26T06:13:10;5.90;1.40
18392;DHT22;9322;50.932;5.318;2024-02-26T06:15:35;5.90;1.40
18392;DHT22;9322;50.932;5.318;2024-02-26T06:18:01;5.90;1.40
18392;DHT22;9322;50.932;5.318;2024-02-26T06:20:27;5.90;1.40
18392;DHT22;9322;50.932;5.318;2024-02-26T06:22:52;5.90;1.40
18392;DHT22;9322;50.932;5.318;2024-02-26T06:25:18;5.80;1.40
18392;DHT22;9322;50.932;5.318;2024-02-26T06:27:44;5.80;1.40
18392;DHT22;9322;50.932;5.318;2024-02-26T06:30:10;5.80;1.40
18392;DHT22;9322;50.932;5.318;2024-02-26T06:32:37;5.80;1.40
18392;DHT22;9322;50.932;5.318;2024-02-26T06:35:03;5.80;1.40
18392;DHT22;9322;50.932;5.318;2024-02-26T06:37:34;5.80;1.40
18392;DHT22;9322;50.932;5.318;2024-02-26T06:40:01;5.80;1.40
18392;DHT22;9322;50.932;5.318;2024-02-26T06:42:29;5.80;1.40
18392;DHT22;9322;50.932;5.318;2024-02-26T06:44:56;5.80;1.40
18392;DHT22;9322;50.932;5.318;2024-02-26T06:47:21;5.80;1.40
18392;DHT22;9322;50.932;5.318;2024-02-26T06:49:47;5.70;1.40
18392;DHT22;9322;50.932;5.318;2024-02-26T06:52:13;5.80;1.40
18392;DHT22;9322;50.932;5.318;2024-02-26T06:54:39;5.70;1.40
18392;DHT22;9322;50.932;5.318;2024-02-26T06:57:05;5.70;1.40
18392;DHT22;9322;50.932;5.318;2024-02-26T06:59:30;5.80;1.40
18392;DHT22;9322;50.932;5.318;2024-02-26T07:01:56;5.80;1.40
18392;DHT22;9322;50.932;5.318;2024-02-26T07:04:22;5.80;1.40
18392;DHT22;9322;50.932;5.318;2024-02-26T07:06:48;5.80;1.40
18392;DHT22;9322;50.932;5.318;2024-02-26T07:09:14;5.80;1.40
18392;DHT22;9322;50.932;5.318;2024-02-26T07:11:40;5.80;1.40
18392;DHT22;9322;50.932;5.318;2024-02-26T07:14:09;5.70;1.40
18392;DHT22;9322;50.932;5.318;2024-02-26T07:16:35;5.70;1.40
18392;DHT22;9322;50.932;5.318;2024-02-26T07:19:01;5.70;1.40
18392;DHT22;9322;50.932;5.318;2024-02-26T07:21:27;5.60;1.40
18392;DHT22;9322;50.932;5.318;2024-02-26T07:23:52;5.70;1.40
18392;DHT22;9322;50.932;5.318;2024-02-26T07:26:18;5.60;1.40
18392;DHT22;9322;50.932;5.318;2024-02-26T07:28:45;5.70;1.40
18392;DHT22;9322;50.932;5.318;2024-02-26T07:31:11;5.60;1.40
18392;DHT22;9322;50.932;5.318;2024-02-26T07:33:36;5.80;1.40
18392;DHT22;9322;50.932;5.318;2024-02-26T07:36:02;5.70;1.40
18392;DHT22;9322;50.932;5.318;2024-02-26T07:38:28;5.70;1.40
18392;DHT22;9322;50.932;5.318;2024-02-26T07:40:54;5.80;1.40
18392;DHT22;9322;50.932;5.318;2024-02-26T07:43:20;5.70;1.40
18392;DHT22;9322;50.932;5.318;2024-02-26T07:45:45;5.70;1.40
18392;DHT22;9322;50.932;5.318;2024-02-26T07:48:11;5.70;1.40
18392;DHT22;9322;50.932;5.318;2024-02-26T07:50:39;5.70;1.40
18392;DHT22;9322;50.932;5.318;2024-02-26T07:53:06;5.80;1.40
18392;DHT22;9322;50.932;5.318;2024-02-26T07:55:32;5.70;1.40
18392;DHT22;9322;50.932;5.318;2024-02-26T07:57:57;5.70;1.40
18392;DHT22;9322;50.932;5.318;2024-02-26T08:00:23;5.70;1.40
18392;DHT22;9322;50.932;5.318;2024-02-26T08:02:49;5.80;1.40
18392;DHT22;9322;50.932;5.318;2024-02-26T08:05:15;5.80;1.40
18392;DHT22;9322;50.932;5.318;2024-02-26T08:07:41;5.80;1.40
18392;DHT22;9322;50.932;5.318;2024-02-26T08:10:07;5.80;1.40
18392;DHT22;9322;50.932;5.318;2024-02-26T08:12:32;5.80;1.40
18392;DHT22;9322;50.932;5.318;2024-02-26T08:14:59;5.80;1.40
18392;DHT22;9322;50.932;5.318;2024-02-26T08:17:25;5.80;1.40
18392;DHT22;9322;50.932;5.318;2024-02-26T08:19:52;5.80;1.40
18392;DHT22;9322;50.932;5.318;2024-02-26T08:22:18;5.80;1.40
18392;DHT22;9322;50.932;5.318;2024-02-26T08:24:44;5.80;1.40
18392;DHT22;9322;50.932;5.318;2024-02-26T08:27:10;5.90;1.40
18392;DHT22;9322;50.932;5.318;2024-02-26T08:29:36;5.90;1.40
18392;DHT22;9322;50.932;5.318;2024-02-26T08:32:02;5.90;1.40
18392;DHT22;9322;50.932;5.318;2024-02-26T08:34:28;5.90;1.40
18392;DHT22;9322;50.932;5.318;2024-02-26T08:36:54;5.90;1.40
18392;DHT22;9322;50.932;5.318;2024-02-26T08:39:20;5.80;1.40
18392;DHT22;9322;50.932;5.318;2024-02-26T08:41:46;5.70;1.40
18392;DHT22;9322;50.932;5.318;2024-02-26T08:44:11;5.80;1.40
18392;DHT22;9322;50.932;5.318;2024-02-26T08:46:37;5.80;1.40
18392;DHT22;9322;50.932;5.318;2024-02-26T08:49:03;5.80;1.40
18392;DHT22;9322;50.932;5.318;2024-02-26T08:51:29;5.90;1.40
18392;DHT22;9322;50.932;5.318;2024-02-26T08:53:55;5.80;1.40
18392;DHT22;9322;50.932;5.318;2024-02-26T08:56:21;5.80;1.40
18392;DHT22;9322;50.932;5.318;2024-02-26T08:58:47;5.80;1.40
18392;DHT22;9322;50.932;5.318;2024-02-26T09:01:17;6.00;1.40
18392;DHT22;9322;50.932;5.318;2024-02-26T09:03:43;5.90;1.40
18392;DHT22;9322;50.932;5.318;2024-02-26T09:06:09;5.80;1.40
18392;DHT22;9322;50.932;5.318;2024-02-26T09:08:35;5.70;1.40
18392;DHT22;9322;50.932;5.318;2024-02-26T09:11:02;6.00;1.40
18392;DHT22;9322;50.932;5.318;2024-02-26T09:13:29;5.90;1.40
18392;DHT22;9322;50.932;5.318;2024-02-26T09:15:54;5.90;1.40
18392;DHT22;9322;50.932;5.318;2024-02-26T09:18:20;6.00;1.40
18392;DHT22;9322;50.932;5.318;2024-02-26T09:20:46;5.80;1.40
18392;DHT22;9322;50.932;5.318;2024-02-26T09:23:12;5.90;1.40
18392;DHT22;9322;50.932;5.318;2024-02-26T09:25:38;5.90;1.40
18392;DHT22;9322;50.932;5.318;2024-02-26T09:28:04;5.90;1.40
18392;DHT22;9322;50.932;5.318;2024-02-26T09:30:30;6.00;1.40
18392;DHT22;9322;50.932;5.318;2024-02-26T09:32:56;6.00;1.40
18392;DHT22;9322;50.932;5.318;2024-02-26T09:35:21;5.90;1.40
18392;DHT22;9322;50.932;5.318;2024-02-26T09:37:47;6.00;1.40
18392;DHT22;9322;50.932;5.318;2024-02-26T09:40:15;6.00;1.40
18392;DHT22;9322;50.932;5.318;2024-02-26T09:42:45;6.00;1.40
18392;DHT22;9322;50.932;5.318;2024-02-26T09:45:17;6.00;1.40
18392;DHT22;9322;50.932;5.318;2024-02-26T09:47:43;6.00;1.40
18392;DHT22;9322;50.932;5.318;2024-02-26T09:50:09;6.10;1.40
18392;DHT22;9322;50.932;5.318;2024-02-26T09:52:40;6.00;1.40
18392;DHT22;9322;50.932;5.318;2024-02-26T09:55:08;6.00;1.40
18392;DHT22;9322;50.932;5.318;2024-02-26T09:57:35;5.90;1.40
18392;DHT22;9322;50.932;5.318;2024-02-26T10:00:03;5.90;1.40
18392;DHT22;9322;50.932;5.318;2024-02-26T10:02:31;6.00;1.40
18392;DHT22;9322;50.932;5.318;2024-02-26T10:04:59;6.20;1.40
18392;DHT22;9322;50.932;5.318;2024-02-26T10:07:30;6.20;1.40
18392;DHT22;9322;50.932;5.318;2024-02-26T10:09:57;6.10;1.40
18392;DHT22;9322;50.932;5.318;2024-02-26T10:12:23;6.10;1.40
18392;DHT22;9322;50.932;5.318;2024-02-26T10:14:51;6.20;1.40
18392;DHT22;9322;50.932;5.318;2024-02-26T10:17:17;6.20;1.40
18392;DHT22;9322;50.932;5.318;2024-02-26T10:19:44;6.20;1.40
18392;DHT22;9322;50.932;5.318;2024-02-26T10:22:10;6.30;1.40
18392;DHT22;9322;50.932;5.318;2024-02-26T10:24:36;6.30;1.40
18392;DHT22;9322;50.932;5.318;2024-02-26T10:27:02;6.30;1.40
18392;DHT22;9322;50.932;5.318;2024-02-26T10:29:28;6.30;1.40
18392;DHT22;9322;50.932;5.318;2024-02-26T10:31:54;6.30;1.40
18392;DHT22;9322;50.932;5.318;2024-02-26T10:34:22;6.30;1.40
18392;DHT22;9322;50.932;5.318;2024-02-26T10:36:49;6.30;1.40
18392;DHT22;9322;50.932;5.318;2024-02-26T10:39:15;6.30;1.40
18392;DHT22;9322;50.932;5.318;2024-02-26T10:41:42;6.40;1.40
18392;DHT22;9322;50.932;5.318;2024-02-26T10:44:12;6.40;1.40
18392;DHT22;9322;50.932;5.318;2024-02-26T10:46:40;6.30;1.40
18392;DHT22;9322;50.932;5.318;2024-02-26T10:49:07;6.30;1.40
18392;DHT22;9322;50.932;5.318;2024-02-26T10:51:38;6.30;1.40
18392;DHT22;9322;50.932;5.318;2024-02-26T10:54:04;6.30;1.40
18392;DHT22;9322;50.932;5.318;2024-02-26T10:56:34;6.30;1.40
18392;DHT22;9322;50.932;5.318;2024-02-26T10:59:00;6.30;1.40
18392;DHT22;9322;50.932;5.318;2024-02-26T11:01:27;6.30;1.40
18392;DHT22;9322;50.932;5.318;2024-02-26T11:03:58;6.40;1.40
18392;DHT22;9322;50.932;5.318;2024-02-26T11:06:26;6.20;1.40
18392;DHT22;9322;50.932;5.318;2024-02-26T11:08:53;6.20;1.40
18392;DHT22;9322;50.932;5.318;2024-02-26T11:11:20;6.20;1.40
18392;DHT22;9322;50.932;5.318;2024-02-26T11:13:47;6.10;1.40
18392;DHT22;9322;50.932;5.318;2024-02-26T11:16:21;6.20;1.40
18392;DHT22;9322;50.932;5.318;2024-02-26T11:18:48;6.20;1.40
18392;DHT22;9322;50.932;5.318;2024-02-26T11:21:18;6.20;1.40
18392;DHT22;9322;50.932;5.318;2024-02-26T11:23:47;6.10;1.40
18392;DHT22;9322;50.932;5.318;2024-02-26T11:26:15;6.20;1.40
18392;DHT22;9322;50.932;5.318;2024-02-26T11:28:42;6.20;1.40
18392;DHT22;9322;50.932;5.318;2024-02-26T11:31:09;6.20;1.40
18392;DHT22;9322;50.932;5.318;2024-02-26T11:33:36;6.20;1.40
18392;DHT22;9322;50.932;5.318;2024-02-26T11:36:07;6.20;1.40
18392;DHT22;9322;50.932;5.318;2024-02-26T11:38:34;6.10;1.40
18392;DHT22;9322;50.932;5.318;2024-02-26T11:40:59;6.10;1.40
18392;DHT22;9322;50.932;5.318;2024-02-26T11:43:57;6.10;1.40
18392;DHT22;9322;50.932;5.318;2024-02-26T11:46:30;6.00;1.40
18392;DHT22;9322;50.932;5.318;2024-02-26T11:49:01;6.00;1.40
18392;DHT22;9322;50.932;5.318;2024-02-26T11:51:31;6.00;1.40
18392;DHT22;9322;50.932;5.318;2024-02-26T11:53:57;5.90;1.40
18392;DHT22;9322;50.932;5.318;2024-02-26T11:56:25;6.00;1.40
18392;DHT22;9322;50.932;5.318;2024-02-26T11:59:00;6.00;1.40
18392;DHT22;9322;50.932;5.318;2024-02-26T12:01:39;6.00;1.40
18392;DHT22;9322;50.932;5.318;2024-02-26T12:04:12;6.10;1.40
18392;DHT22;9322;50.932;5.318;2024-02-26T12:06:59;6.20;1.40
18392;DHT22;9322;50.932;5.318;2024-02-26T12:12:02;6.10;1.40
18392;DHT22;9322;50.932;5.318;2024-02-26T12:14:28;6.20;1.40
18392;DHT22;9322;50.932;5.318;2024-02-26T12:16:55;6.20;1.40
18392;DHT22;9322;50.932;5.318;2024-02-26T12:19:22;6.20;1.40
18392;DHT22;9322;50.932;5.318;2024-02-26T12:21:51;6.30;1.40
18392;DHT22;9322;50.932;5.318;2024-02-26T12:24:18;6.20;1.40
18392;DHT22;9322;50.932;5.318;2024-02-26T12:26:45;6.10;1.40
18392;DHT22;9322;50.932;5.318;2024-02-26T12:29:11;6.20;1.40
18392;DHT22;9322;50.932;5.318;2024-02-26T12:31:37;6.30;1.40
18392;DHT22;9322;50.932;5.318;2024-02-26T12:34:05;6.20;1.40
18392;DHT22;9322;50.932;5.318;2024-02-26T12:36:32;6.20;1.40
18392;DHT22;9322;50.932;5.318;2024-02-26T12:39:00;6.40;1.40
18392;DHT22;9322;50.932;5.318;2024-02-26T12:41:26;6.40;1.40
18392;DHT22;9322;50.932;5.318;2024-02-26T12:43:53;6.40;1.40
18392;DHT22;9322;50.932;5.318;2024-02-26T12:46:19;6.50;1.40
18392;DHT22;9322;50.932;5.318;2024-02-26T12:48:46;6.50;1.40
18392;DHT22;9322;50.932;5.318;2024-02-26T12:51:12;6.50;1.40
18392;DHT22;9322;50.932;5.318;2024-02-26T12:53:39;6.70;1.40
18392;DHT22;9322;50.932;5.318;2024-02-26T12:56:07;6.60;1.40
18392;DHT22;9322;50.932;5.318;2024-02-26T12:58:34;6.50;1.40
18392;DHT22;9322;50.932;5.318;2024-02-26T13:01:01;6.60;1.40
18392;DHT22;9322;50.932;5.318;2024-02-26T13:03:28;6.80;1.40
18392;DHT22;9322;50.932;5.318;2024-02-26T13:05:54;6.80;1.40
18392;DHT22;9322;50.932;5.318;2024-02-26T13:08:21;6.80;1.40
18392;DHT22;9322;50.932;5.318;2024-02-26T13:10:47;7.10;1.40
18392;DHT22;9322;50.932;5.318;2024-02-26T13:13:16;6.90;1.40
18392;DHT22;9322;50.932;5.318;2024-02-26T13:15:44;6.70;1.40
18392;DHT22;9322;50.932;5.318;2024-02-26T13:18:15;6.60;1.40
18392;DHT22;9322;50.932;5.318;2024-02-26T13:20:42;6.50;1.40
18392;DHT22;9322;50.932;5.318;2024-02-26T13:23:12;6.40;1.40
18392;DHT22;9322;50.932;5.318;2024-02-26T13:25:39;6.40;1.40
18392;DHT22;9322;50.932;5.318;2024-02-26T13:28:14;6.60;1.40
18392;DHT22;9322;50.932;5.318;2024-02-26T13:30:41;6.40;1.40
18392;DHT22;9322;50.932;5.318;2024-02-26T13:33:12;6.40;1.40
18392;DHT22;9322;50.932;5.318;2024-02-26T13:35:38;6.40;1.40
18392;DHT22;9322;50.932;5.318;2024-02-26T13:38:05;6.40;1.40
18392;DHT22;9322;50.932;5.318;2024-02-26T13:40:32;6.50;1.40
18392;DHT22;9322;50.932;5.318;2024-02-26T13:42:57;6.30;1.40
18392;DHT22;9322;50.932;5.318;2024-02-26T13:45:23;6.20;1.40
18392;DHT22;9322;50.932;5.318;2024-02-26T13:47:49;6.30;1.40
18392;DHT22;9322;50.932;5.318;2024-02-26T13:50:14;6.30;1.40
18392;DHT22;9322;50.932;5.318;2024-02-26T13:52:41;6.40;1.40
18392;DHT22;9322;50.932;5.318;2024-02-26T13:55:07;6.40;1.40
18392;DHT22;9322;50.932;5.318;2024-02-26T13:57:33;6.30;1.40
18392;DHT22;9322;50.932;5.318;2024-02-26T13:59:59;6.30;1.40
18392;DHT22;9322;50.932;5.318;2024-02-26T14:02:24;6.50;1.40
18392;DHT22;9322;50.932;5.318;2024-02-26T14:04:51;6.20;1.40
18392;DHT22;9322;50.932;5.318;2024-02-26T14:07:16;6.30;1.40
18392;DHT22;9322;50.932;5.318;2024-02-26T14:09:45;6.50;1.40
18392;DHT22;9322;50.932;5.318;2024-02-26T14:12:11;6.40;1.40
18392;DHT22;9322;50.932;5.318;2024-02-26T14:14:36;6.20;1.40
18392;DHT22;9322;50.932;5.318;2024-02-26T14:17:04;6.20;1.40
18392;DHT22;9322;50.932;5.318;2024-02-26T14:19:30;6.40;1.40
18392;DHT22;9322;50.932;5.318;2024-02-26T14:21:56;6.60;1.40
18392;DHT22;9322;50.932;5.318;2024-02-26T14:24:21;6.60;1.40
18392;DHT22;9322;50.932;5.318;2024-02-26T14:26:47;6.50;1.40
18392;DHT22;9322;50.932;5.318;2024-02-26T14:29:12;6.50;1.40
18392;DHT22;9322;50.932;5.318;2024-02-26T14:31:39;6.50;1.40
18392;DHT22;9322;50.932;5.318;2024-02-26T14:34:05;6.40;1.40
18392;DHT22;9322;50.932;5.318;2024-02-26T14:36:30;6.50;1.40
18392;DHT22;9322;50.932;5.318;2024-02-26T14:38:56;6.40;1.40
18392;DHT22;9322;50.932;5.318;2024-02-26T14:41:22;6.40;1.40
18392;DHT22;9322;50.932;5.318;2024-02-26T14:43:48;6.50;1.40
18392;DHT22;9322;50.932;5.318;2024-02-26T14:46:13;6.50;1.40
18392;DHT22;9322;50.932;5.318;2024-02-26T14:48:39;6.50;1.40
18392;DHT22;9322;50.932;5.318;2024-02-26T14:51:04;6.50;1.40
18392;DHT22;9322;50.932;5.318;2024-02-26T14:53:31;6.50;1.40
18392;DHT22;9322;50.932;5.318;2024-02-26T14:55:58;6.60;1.40
18392;DHT22;9322;50.932;5.318;2024-02-26T14:58:23;6.60;1.40
18392;DHT22;9322;50.932;5.318;2024-02-26T15:00:49;6.70;1.40
18392;DHT22;9322;50.932;5.318;2024-02-26T15:03:15;6.80;1.40
18392;DHT22;9322;50.932;5.318;2024-02-26T15:05:42;6.80;1.40
18392;DHT22;9322;50.932;5.318;2024-02-26T15:08:08;6.60;1.40
18392;DHT22;9322;50.932;5.318;2024-02-26T15:10:35;6.50;1.40
18392;DHT22;9322;50.932;5.318;2024-02-26T15:13:01;6.60;1.40
18392;DHT22;9322;50.932;5.318;2024-02-26T15:15:27;6.80;1.40
18392;DHT22;9322;50.932;5.318;2024-02-26T15:17:53;6.90;1.40
18392;DHT22;9322;50.932;5.318;2024-02-26T15:20:18;6.80;1.40
18392;DHT22;9322;50.932;5.318;2024-02-26T15:22:44;6.90;1.40
18392;DHT22;9322;50.932;5.318;2024-02-26T15:25:10;6.80;1.40
18392;DHT22;9322;50.932;5.318;2024-02-26T15:27:36;6.80;1.40
18392;DHT22;9322;50.932;5.318;2024-02-26T15:30:02;6.80;1.40
18392;DHT22;9322;50.932;5.318;2024-02-26T15:32:28;6.90;1.40
18392;DHT22;9322;50.932;5.318;2024-02-26T15:34:54;7.00;1.40
18392;DHT22;9322;50.932;5.318;2024-02-26T15:37:20;6.90;1.40
18392;DHT22;9322;50.932;5.318;2024-02-26T15:39:46;6.80;1.40
18392;DHT22;9322;50.932;5.318;2024-02-26T15:42:12;6.70;1.40
18392;DHT22;9322;50.932;5.318;2024-02-26T15:44:38;6.60;1.40
18392;DHT22;9322;50.932;5.318;2024-02-26T15:47:04;6.70;1.40
18392;DHT22;9322;50.932;5.318;2024-02-26T15:49:31;6.70;1.40
18392;DHT22;9322;50.932;5.318;2024-02-26T15:51:57;6.70;1.40
18392;DHT22;9322;50.932;5.318;2024-02-26T15:54:23;6.60;1.40
18392;DHT22;9322;50.932;5.318;2024-02-26T15:56:49;6.60;1.40
18392;DHT22;9322;50.932;5.318;2024-02-26T15:59:14;6.70;1.40
18392;DHT22;9322;50.932;5.318;2024-02-26T16:01:40;6.60;1.40
18392;DHT22;9322;50.932;5.318;2024-02-26T16:04:06;6.50;1.40
18392;DHT22;9322;50.932;5.318;2024-02-26T16:06:38;6.70;1.40
18392;DHT22;9322;50.932;5.318;2024-02-26T16:09:05;6.50;1.40
18392;DHT22;9322;50.932;5.318;2024-02-26T16:11:30;6.50;1.40
18392;DHT22;9322;50.932;5.318;2024-02-26T16:19:40;6.70;1.40
18392;DHT22;9322;50.932;5.318;2024-02-26T16:22:06;6.70;1.40